sensor_id;sensor_type;location;lat;lon;timestamp;pressure;altitude;pressure_sealevel;temperature;humidity
84024;BME280;74109;45.636;25.582;2023-11-18T00:01:10;93648.29;;;6.73;73.35
84024;BME280;74109;45.636;25.582;2023-11-18T00:04:23;93643.89;;;6.72;73.31
84024;BME280;74109;45.636;25.582;2023-11-18T00:07:00;93644.33;;;6.67;73.40
84024;BME280;74109;45.636;25.582;2023-11-18T00:10:05;93650.73;;;6.60;73.43
84024;BME280;74109;45.636;25.582;2023-11-18T00:12:56;93656.45;;;6.53;73.34
84024;BME280;74109;45.636;25.582;2023-11-18T00:15:25;93656.42;;;6.49;72.85
84024;BME280;74109;45.636;25.582;2023-11-18T00:18:55;93653.58;;;6.47;73.26
84024;BME280;74109;45.636;25.582;2023-11-18T00:21:43;93649.86;;;6.45;73.43
84024;BME280;74109;45.636;25.582;2023-11-18T00:24:14;93642.14;;;6.45;73.72
84024;BME280;74109;45.636;25.582;2023-11-18T00:27:06;93655.58;;;6.46;73.81
84024;BME280;74109;45.636;25.582;2023-11-18T00:29:58;93660.62;;;6.46;73.74
84024;BME280;74109;45.636;25.582;2023-11-18T00:33:08;93661.34;;;6.43;73.76
84024;BME280;74109;45.636;25.582;2023-11-18T00:36:01;93652.83;;;6.42;73.57
84024;BME280;74109;45.636;25.582;2023-11-18T00:38:42;93647.19;;;6.44;73.62
84024;BME280;74109;45.636;25.582;2023-11-18T00:41:19;93649.57;;;6.48;73.36
84024;BME280;74109;45.636;25.582;2023-11-18T00:51:20;93647.89;;;6.50;73.77
84024;BME280;74109;45.636;25.582;2023-11-18T00:53:58;93652.34;;;6.47;73.69
84024;BME280;74109;45.636;25.582;2023-11-18T00:56:38;93654.33;;;6.44;73.69
84024;BME280;74109;45.636;25.582;2023-11-18T01:05:54;93624.50;;;6.38;73.24
84024;BME280;74109;45.636;25.582;2023-11-18T01:08:37;93629.47;;;6.35;73.63
84024;BME280;74109;45.636;25.582;2023-11-18T01:11:27;93631.66;;;6.32;73.34
84024;BME280;74109;45.636;25.582;2023-11-18T01:14:00;93625.17;;;6.23;73.09
84024;BME280;74109;45.636;25.582;2023-11-18T01:17:11;93622.48;;;6.17;73.18
84024;BME280;74109;45.636;25.582;2023-11-18T01:21:01;93620.58;;;6.12;73.38
84024;BME280;74109;45.636;25.582;2023-11-18T01:46:25;93618.70;;;5.64;74.09
84024;BME280;74109;45.636;25.582;2023-11-18T01:49:35;93625.95;;;5.64;74.26
84024;BME280;74109;45.636;25.582;2023-11-18T01:52:32;93627.55;;;5.64;74.03
84024;BME280;74109;45.636;25.582;2023-11-18T01:58:49;93621.78;;;5.57;74.18
84024;BME280;74109;45.636;25.582;2023-11-18T02:02:09;93623.26;;;5.55;74.28
84024;BME280;74109;45.636;25.582;2023-11-18T02:04:58;93623.48;;;5.50;74.23
84024;BME280;74109;45.636;25.582;2023-11-18T02:07:56;93625.20;;;5.43;74.54
84024;BME280;74109;45.636;25.582;2023-11-18T02:17:23;93628.23;;;5.45;74.64
84024;BME280;74109;45.636;25.582;2023-11-18T02:20:21;93626.80;;;5.50;74.56
84024;BME280;74109;45.636;25.582;2023-11-18T02:23:52;93627.64;;;5.52;74.91
84024;BME280;74109;45.636;25.582;2023-11-18T02:26:53;93637.83;;;5.52;74.67
84024;BME280;74109;45.636;25.582;2023-11-18T02:30:09;93641.08;;;5.53;74.69
84024;BME280;74109;45.636;25.582;2023-11-18T02:36:43;93634.38;;;5.57;74.39
84024;BME280;74109;45.636;25.582;2023-11-18T02:42:53;93635.92;;;5.75;74.37
84024;BME280;74109;45.636;25.582;2023-11-18T02:45:34;93638.79;;;5.79;74.43
84024;BME280;74109;45.636;25.582;2023-11-18T02:48:06;93637.59;;;5.81;74.36
84024;BME280;74109;45.636;25.582;2023-11-18T02:53:55;93635.05;;;5.89;74.11
84024;BME280;74109;45.636;25.582;2023-11-18T03:00:59;93614.30;;;5.92;74.03
84024;BME280;74109;45.636;25.582;2023-11-18T03:04:08;93614.11;;;5.94;74.30
84024;BME280;74109;45.636;25.582;2023-11-18T03:07:13;93619.63;;;5.95;74.59
84024;BME280;74109;45.636;25.582;2023-11-18T03:10:22;93618.65;;;5.97;74.50
84024;BME280;74109;45.636;25.582;2023-11-18T03:13:26;93627.81;;;5.97;74.46
84024;BME280;74109;45.636;25.582;2023-11-18T03:19:49;93640.05;;;6.03;74.37
84024;BME280;74109;45.636;25.582;2023-11-18T03:23:04;93651.30;;;6.08;74.24
84024;BME280;74109;45.636;25.582;2023-11-18T03:26:16;93656.59;;;6.13;74.25
84024;BME280;74109;45.636;25.582;2023-11-18T03:29:11;93656.52;;;6.18;73.85
84024;BME280;74109;45.636;25.582;2023-11-18T03:32:10;93658.33;;;6.19;73.75
84024;BME280;74109;45.636;25.582;2023-11-18T03:34:42;93655.40;;;6.19;73.61
84024;BME280;74109;45.636;25.582;2023-11-18T03:37:56;93658.36;;;6.17;73.36
84024;BME280;74109;45.636;25.582;2023-11-18T03:40:35;93655.10;;;6.14;73.26
84024;BME280;74109;45.636;25.582;2023-11-18T03:43:56;93653.94;;;6.09;73.39
84024;BME280;74109;45.636;25.582;2023-11-18T03:46:49;93656.09;;;6.08;73.49
84024;BME280;74109;45.636;25.582;2023-11-18T03:49:41;93655.38;;;6.11;73.48
84024;BME280;74109;45.636;25.582;2023-11-18T03:52:51;93660.20;;;6.14;73.59
84024;BME280;74109;45.636;25.582;2023-11-18T04:00:19;93674.79;;;6.13;73.39
84024;BME280;74109;45.636;25.582;2023-11-18T04:06:28;93673.30;;;6.08;73.57
84024;BME280;74109;45.636;25.582;2023-11-18T04:09:40;93674.73;;;6.07;73.87
84024;BME280;74109;45.636;25.582;2023-11-18T04:12:14;93679.35;;;6.09;73.49
84024;BME280;74109;45.636;25.582;2023-11-18T04:15:59;93676.81;;;6.15;73.37
84024;BME280;74109;45.636;25.582;2023-11-18T04:19:28;93679.42;;;6.21;73.70
84024;BME280;74109;45.636;25.582;2023-11-18T04:25:36;93676.38;;;6.24;73.65
84024;BME280;74109;45.636;25.582;2023-11-18T04:28:15;93677.60;;;6.22;74.01
84024;BME280;74109;45.636;25.582;2023-11-18T04:31:07;93680.98;;;6.19;74.08
84024;BME280;74109;45.636;25.582;2023-11-18T04:34:19;93677.70;;;6.17;73.90
84024;BME280;74109;45.636;25.582;2023-11-18T04:37:32;93680.61;;;6.19;73.75
84024;BME280;74109;45.636;25.582;2023-11-18T04:40:30;93676.36;;;6.21;73.93
84024;BME280;74109;45.636;25.582;2023-11-18T04:43:41;93681.90;;;6.21;73.97
84024;BME280;74109;45.636;25.582;2023-11-18T04:46:41;93682.90;;;6.23;73.96
84024;BME280;74109;45.636;25.582;2023-11-18T04:49:59;93687.73;;;6.23;73.82
84024;BME280;74109;45.636;25.582;2023-11-18T04:52:51;93690.19;;;6.21;74.05
84024;BME280;74109;45.636;25.582;2023-11-18T04:55:45;93688.93;;;6.18;73.59
84024;BME280;74109;45.636;25.582;2023-11-18T04:59:35;93688.39;;;6.15;73.51
84024;BME280;74109;45.636;25.582;2023-11-18T05:09:06;93687.59;;;6.12;73.36
84024;BME280;74109;45.636;25.582;2023-11-18T05:15:31;93697.02;;;6.08;72.95
84024;BME280;74109;45.636;25.582;2023-11-18T05:18:32;93704.45;;;6.00;72.21
84024;BME280;74109;45.636;25.582;2023-11-18T05:21:41;93704.61;;;5.94;72.61
84024;BME280;74109;45.636;25.582;2023-11-18T05:25:04;93710.77;;;5.92;72.58
84024;BME280;74109;45.636;25.582;2023-11-18T05:28:12;93716.46;;;5.91;72.75
84024;BME280;74109;45.636;25.582;2023-11-18T05:35:19;93724.16;;;5.95;73.28
84024;BME280;74109;45.636;25.582;2023-11-18T05:38:03;93730.48;;;5.94;72.94
84024;BME280;74109;45.636;25.582;2023-11-18T05:40:32;93730.62;;;5.93;72.66
84024;BME280;74109;45.636;25.582;2023-11-18T05:43:13;93735.94;;;5.90;71.92
84024;BME280;74109;45.636;25.582;2023-11-18T05:46:28;93736.77;;;5.86;71.83
84024;BME280;74109;45.636;25.582;2023-11-18T05:49:22;93738.86;;;5.77;71.67
84024;BME280;74109;45.636;25.582;2023-11-18T05:55:09;93748.47;;;5.73;71.81
84024;BME280;74109;45.636;25.582;2023-11-18T05:58:39;93751.20;;;5.72;71.54
84024;BME280;74109;45.636;25.582;2023-11-18T06:01:42;93752.33;;;5.67;71.63
84024;BME280;74109;45.636;25.582;2023-11-18T06:04:55;93759.23;;;5.60;72.02
84024;BME280;74109;45.636;25.582;2023-11-18T06:11:12;93762.77;;;5.41;72.39
84024;BME280;74109;45.636;25.582;2023-11-18T06:18:38;93763.58;;;5.41;71.96
84024;BME280;74109;45.636;25.582;2023-11-18T06:21:20;93764.06;;;5.43;72.41
84024;BME280;74109;45.636;25.582;2023-11-18T06:24:52;93767.41;;;5.44;72.92
84024;BME280;74109;45.636;25.582;2023-11-18T06:27:57;93772.88;;;5.45;72.74
84024;BME280;74109;45.636;25.582;2023-11-18T06:31:09;93789.80;;;5.42;72.47
84024;BME280;74109;45.636;25.582;2023-11-18T06:34:17;93801.99;;;5.39;71.82
84024;BME280;74109;45.636;25.582;2023-11-18T06:36:52;93805.38;;;5.36;72.11
84024;BME280;74109;45.636;25.582;2023-11-18T06:39:31;93798.41;;;5.37;71.70
84024;BME280;74109;45.636;25.582;2023-11-18T06:42:40;93794.58;;;5.35;71.36
84024;BME280;74109;45.636;25.582;2023-11-18T06:45:42;93789.45;;;5.36;72.22
84024;BME280;74109;45.636;25.582;2023-11-18T06:48:35;93792.54;;;5.36;72.37
84024;BME280;74109;45.636;25.582;2023-11-18T06:51:28;93800.76;;;5.36;72.30
84024;BME280;74109;45.636;25.582;2023-11-18T06:54:23;93800.95;;;5.35;71.85
84024;BME280;74109;45.636;25.582;2023-11-18T06:57:34;93798.89;;;5.31;71.96
84024;BME280;74109;45.636;25.582;2023-11-18T07:00:08;93797.69;;;5.28;72.32
84024;BME280;74109;45.636;25.582;2023-11-18T07:02:44;93794.02;;;5.27;72.16
84024;BME280;74109;45.636;25.582;2023-11-18T07:05:33;93794.23;;;5.32;72.40
84024;BME280;74109;45.636;25.582;2023-11-18T07:08:21;93792.77;;;5.33;72.25
84024;BME280;74109;45.636;25.582;2023-11-18T07:11:32;93798.98;;;5.34;72.35
84024;BME280;74109;45.636;25.582;2023-11-18T07:14:23;93801.14;;;5.35;72.51
84024;BME280;74109;45.636;25.582;2023-11-18T07:16:59;93803.77;;;5.34;71.62
84024;BME280;74109;45.636;25.582;2023-11-18T07:35:48;93828.65;;;5.32;72.74
84024;BME280;74109;45.636;25.582;2023-11-18T07:39:08;93832.29;;;5.35;72.71
84024;BME280;74109;45.636;25.582;2023-11-18T07:42:18;93833.30;;;5.30;72.49
84024;BME280;74109;45.636;25.582;2023-11-18T07:44:50;93836.95;;;5.27;72.37
84024;BME280;74109;45.636;25.582;2023-11-18T07:47:45;93837.12;;;5.20;72.38
84024;BME280;74109;45.636;25.582;2023-11-18T07:50:18;93844.81;;;5.16;72.52
84024;BME280;74109;45.636;25.582;2023-11-18T07:53:48;93860.06;;;5.13;72.16
84024;BME280;74109;45.636;25.582;2023-11-18T07:56:18;93862.31;;;5.08;72.63
84024;BME280;74109;45.636;25.582;2023-11-18T07:59:58;93860.84;;;5.06;72.36
84024;BME280;74109;45.636;25.582;2023-11-18T08:02:26;93860.35;;;5.07;72.08
84024;BME280;74109;45.636;25.582;2023-11-18T08:05:59;93859.73;;;5.07;72.41
84024;BME280;74109;45.636;25.582;2023-11-18T08:08:32;93863.52;;;5.10;72.78
84024;BME280;74109;45.636;25.582;2023-11-18T08:11:46;93864.56;;;5.11;72.96
84024;BME280;74109;45.636;25.582;2023-11-18T08:14:42;93869.62;;;5.10;72.99
84024;BME280;74109;45.636;25.582;2023-11-18T08:18:21;93879.09;;;5.08;73.20
84024;BME280;74109;45.636;25.582;2023-11-18T08:21:51;93884.75;;;5.05;72.47
84024;BME280;74109;45.636;25.582;2023-11-18T08:24:44;93889.02;;;5.01;72.66
84024;BME280;74109;45.636;25.582;2023-11-18T08:27:20;93895.29;;;5.02;72.78
84024;BME280;74109;45.636;25.582;2023-11-18T08:33:20;93902.40;;;5.03;72.94
84024;BME280;74109;45.636;25.582;2023-11-18T08:36:12;93907.23;;;5.04;73.05
84024;BME280;74109;45.636;25.582;2023-11-18T08:39:28;93910.95;;;5.06;73.02
84024;BME280;74109;45.636;25.582;2023-11-18T08:42:48;93913.70;;;5.08;72.52
84024;BME280;74109;45.636;25.582;2023-11-18T08:45:51;93913.80;;;5.11;72.43
84024;BME280;74109;45.636;25.582;2023-11-18T08:49:40;93924.19;;;5.09;72.50
84024;BME280;74109;45.636;25.582;2023-11-18T09:00:28;93931.06;;;5.11;72.44
84024;BME280;74109;45.636;25.582;2023-11-18T09:04:41;93938.70;;;5.10;72.11
84024;BME280;74109;45.636;25.582;2023-11-18T09:07:46;93943.44;;;5.05;72.28
84024;BME280;74109;45.636;25.582;2023-11-18T09:11:25;93947.05;;;4.99;72.62
84024;BME280;74109;45.636;25.582;2023-11-18T09:18:13;93949.85;;;4.92;72.28
84024;BME280;74109;45.636;25.582;2023-11-18T09:35:17;93931.79;;;4.63;72.12
84024;BME280;74109;45.636;25.582;2023-11-18T09:38:43;93931.28;;;4.58;72.08
84024;BME280;74109;45.636;25.582;2023-11-18T09:42:39;93933.62;;;4.48;72.00
84024;BME280;74109;45.636;25.582;2023-11-18T09:48:18;93942.52;;;4.28;73.17
84024;BME280;74109;45.636;25.582;2023-11-18T10:01:38;93959.24;;;4.04;73.66
84024;BME280;74109;45.636;25.582;2023-11-18T10:08:51;93959.05;;;4.05;73.58
84024;BME280;74109;45.636;25.582;2023-11-18T10:34:07;93980.25;;;4.02;73.05
84024;BME280;74109;45.636;25.582;2023-11-18T10:40:54;93989.41;;;3.89;73.31
84024;BME280;74109;45.636;25.582;2023-11-18T10:48:14;93999.47;;;3.87;73.38
84024;BME280;74109;45.636;25.582;2023-11-18T10:51:17;93997.66;;;3.92;73.40
84024;BME280;74109;45.636;25.582;2023-11-18T10:58:07;93995.97;;;4.09;73.61
84024;BME280;74109;45.636;25.582;2023-11-18T11:01:52;93998.52;;;4.12;73.31
84024;BME280;74109;45.636;25.582;2023-11-18T11:05:08;94001.22;;;4.12;72.69
84024;BME280;74109;45.636;25.582;2023-11-18T11:08:23;94016.52;;;4.09;73.21
84024;BME280;74109;45.636;25.582;2023-11-18T11:11:24;94019.78;;;4.12;73.30
84024;BME280;74109;45.636;25.582;2023-11-18T11:14:54;94021.59;;;4.10;72.71
84024;BME280;74109;45.636;25.582;2023-11-18T11:18:36;94013.92;;;4.09;72.70
84024;BME280;74109;45.636;25.582;2023-11-18T11:28:30;94011.42;;;4.03;71.93
84024;BME280;74109;45.636;25.582;2023-11-18T11:39:51;94028.72;;;3.73;72.68
84024;BME280;74109;45.636;25.582;2023-11-18T11:42:53;94027.19;;;3.68;72.60
84024;BME280;74109;45.636;25.582;2023-11-18T11:46:05;94017.84;;;3.59;72.46
84024;BME280;74109;45.636;25.582;2023-11-18T11:49:21;94023.63;;;3.47;73.02
84024;BME280;74109;45.636;25.582;2023-11-18T12:04:25;94049.36;;;3.38;73.14
84024;BME280;74109;45.636;25.582;2023-11-18T12:07:55;94052.02;;;3.35;73.57
84024;BME280;74109;45.636;25.582;2023-11-18T12:19:28;94070.52;;;3.32;73.76
84024;BME280;74109;45.636;25.582;2023-11-18T12:21:57;94074.81;;;3.31;73.62
84024;BME280;74109;45.636;25.582;2023-11-18T12:28:25;94081.75;;;3.15;73.21
84024;BME280;74109;45.636;25.582;2023-11-18T12:31:40;94081.83;;;3.04;73.69
84024;BME280;74109;45.636;25.582;2023-11-18T12:42:06;94086.88;;;2.97;73.81
84024;BME280;74109;45.636;25.582;2023-11-18T12:50:10;94080.18;;;2.75;73.98
84024;BME280;74109;45.636;25.582;2023-11-18T12:57:00;94097.25;;;2.59;74.70
84024;BME280;74109;45.636;25.582;2023-11-18T13:01:21;94105.73;;;2.57;74.26
84024;BME280;74109;45.636;25.582;2023-11-18T15:36:24;94287.39;;;2.22;75.93
84024;BME280;74109;45.636;25.582;2023-11-18T15:39:54;94293.94;;;2.24;76.03
84024;BME280;74109;45.636;25.582;2023-11-18T18:00:10;94477.36;;;1.71;77.41
84024;BME280;74109;45.636;25.582;2023-11-18T18:07:45;94485.42;;;1.61;77.71
84024;BME280;74109;45.636;25.582;2023-11-18T18:19:39;94497.89;;;1.38;78.68
84024;BME280;74109;45.636;25.582;2023-11-18T18:22:28;94494.98;;;1.34;78.62
84024;BME280;74109;45.636;25.582;2023-11-18T18:44:51;94502.48;;;1.61;78.02
84024;BME280;74109;45.636;25.582;2023-11-18T18:56:07;94504.13;;;1.80;77.95
84024;BME280;74109;45.636;25.582;2023-11-18T18:59:59;94503.86;;;1.79;77.02
84024;BME280;74109;45.636;25.582;2023-11-18T19:10:40;94512.98;;;1.72;77.63
84024;BME280;74109;45.636;25.582;2023-11-18T19:44:16;94525.84;;;1.95;77.30
84024;BME280;74109;45.636;25.582;2023-11-18T21:08:16;94584.10;;;1.94;76.07
84024;BME280;74109;45.636;25.582;2023-11-18T21:50:05;94596.00;;;2.02;75.04
